sensor_id;sensor_type;location;lat;lon;timestamp;P1;durP1;ratioP1;P2;durP2;ratioP2
9208;SDS011;4639;48.862;9.188;2023-02-23T00:00:24;25.17;;;18.58;;
9208;SDS011;4639;48.862;9.188;2023-02-23T00:02:57;23.70;;;18.92;;
9208;SDS011;4639;48.862;9.188;2023-02-23T00:05:25;24.52;;;18.52;;
9208;SDS011;4639;48.862;9.188;2023-02-23T00:07:52;24.35;;;17.35;;
9208;SDS011;4639;48.862;9.188;2023-02-23T00:10:19;25.00;;;17.23;;
9208;SDS011;4639;48.862;9.188;2023-02-23T00:12:45;21.35;;;17.27;;
9208;SDS011;4639;48.862;9.188;2023-02-23T00:15:13;24.38;;;18.80;;
9208;SDS011;4639;48.862;9.188;2023-02-23T00:17:39;22.63;;;18.33;;
9208;SDS011;4639;48.862;9.188;2023-02-23T00:20:06;24.95;;;17.80;;
9208;SDS011;4639;48.862;9.188;2023-02-23T00:22:37;21.30;;;17.88;;
9208;SDS011;4639;48.862;9.188;2023-02-23T00:25:04;22.83;;;18.00;;
9208;SDS011;4639;48.862;9.188;2023-02-23T00:27:33;26.55;;;18.75;;
9208;SDS011;4639;48.862;9.188;2023-02-23T00:30:00;25.60;;;17.88;;
9208;SDS011;4639;48.862;9.188;2023-02-23T00:32:26;26.33;;;18.45;;
9208;SDS011;4639;48.862;9.188;2023-02-23T00:34:51;28.02;;;19.05;;
9208;SDS011;4639;48.862;9.188;2023-02-23T00:37:17;22.23;;;17.35;;
9208;SDS011;4639;48.862;9.188;2023-02-23T00:39:45;21.80;;;17.30;;
9208;SDS011;4639;48.862;9.188;2023-02-23T00:42:11;27.00;;;18.77;;
9208;SDS011;4639;48.862;9.188;2023-02-23T00:44:37;24.80;;;18.08;;
9208;SDS011;4639;48.862;9.188;2023-02-23T00:47:05;25.27;;;18.83;;
9208;SDS011;4639;48.862;9.188;2023-02-23T00:49:31;26.98;;;18.67;;
9208;SDS011;4639;48.862;9.188;2023-02-23T00:51:57;22.98;;;18.30;;
9208;SDS011;4639;48.862;9.188;2023-02-23T00:54:23;24.02;;;19.35;;
9208;SDS011;4639;48.862;9.188;2023-02-23T00:56:49;28.15;;;18.55;;
9208;SDS011;4639;48.862;9.188;2023-02-23T00:59:14;24.52;;;18.75;;
9208;SDS011;4639;48.862;9.188;2023-02-23T01:01:41;24.55;;;18.30;;
9208;SDS011;4639;48.862;9.188;2023-02-23T01:04:06;29.27;;;19.85;;
9208;SDS011;4639;48.862;9.188;2023-02-23T01:06:34;29.25;;;19.45;;
9208;SDS011;4639;48.862;9.188;2023-02-23T01:09:08;25.30;;;18.90;;
9208;SDS011;4639;48.862;9.188;2023-02-23T01:11:37;30.83;;;19.20;;
9208;SDS011;4639;48.862;9.188;2023-02-23T01:14:05;29.50;;;20.55;;
9208;SDS011;4639;48.862;9.188;2023-02-23T01:16:31;29.17;;;20.30;;
9208;SDS011;4639;48.862;9.188;2023-02-23T01:18:59;25.17;;;19.27;;
9208;SDS011;4639;48.862;9.188;2023-02-23T01:21:31;27.27;;;19.63;;
9208;SDS011;4639;48.862;9.188;2023-02-23T01:23:58;25.08;;;19.70;;
9208;SDS011;4639;48.862;9.188;2023-02-23T01:26:35;29.63;;;20.10;;
9208;SDS011;4639;48.862;9.188;2023-02-23T01:29:09;25.20;;;20.65;;
9208;SDS011;4639;48.862;9.188;2023-02-23T01:31:38;26.05;;;20.75;;
9208;SDS011;4639;48.862;9.188;2023-02-23T01:34:09;28.13;;;19.85;;
9208;SDS011;4639;48.862;9.188;2023-02-23T01:36:36;27.33;;;20.63;;
9208;SDS011;4639;48.862;9.188;2023-02-23T01:39:04;26.30;;;20.17;;
9208;SDS011;4639;48.862;9.188;2023-02-23T01:41:32;28.83;;;20.00;;
9208;SDS011;4639;48.862;9.188;2023-02-23T01:44:03;33.25;;;20.58;;
9208;SDS011;4639;48.862;9.188;2023-02-23T01:46:32;27.42;;;20.40;;
9208;SDS011;4639;48.862;9.188;2023-02-23T01:49:03;27.88;;;21.58;;
9208;SDS011;4639;48.862;9.188;2023-02-23T01:51:36;26.98;;;19.90;;
9208;SDS011;4639;48.862;9.188;2023-02-23T01:54:08;29.30;;;21.40;;
9208;SDS011;4639;48.862;9.188;2023-02-23T01:56:40;27.27;;;20.58;;
9208;SDS011;4639;48.862;9.188;2023-02-23T01:59:12;31.30;;;20.75;;
9208;SDS011;4639;48.862;9.188;2023-02-23T02:01:40;29.30;;;20.90;;
9208;SDS011;4639;48.862;9.188;2023-02-23T02:04:07;28.77;;;21.08;;
9208;SDS011;4639;48.862;9.188;2023-02-23T02:06:35;29.85;;;21.45;;
9208;SDS011;4639;48.862;9.188;2023-02-23T02:09:04;28.95;;;22.08;;
9208;SDS011;4639;48.862;9.188;2023-02-23T02:11:34;30.95;;;20.75;;
9208;SDS011;4639;48.862;9.188;2023-02-23T02:14:15;29.17;;;21.95;;
9208;SDS011;4639;48.862;9.188;2023-02-23T02:31:29;32.92;;;23.95;;
9208;SDS011;4639;48.862;9.188;2023-02-23T02:40:11;32.45;;;23.38;;
9208;SDS011;4639;48.862;9.188;2023-02-23T02:43:02;29.05;;;23.63;;
9208;SDS011;4639;48.862;9.188;2023-02-23T02:45:55;32.08;;;24.25;;
9208;SDS011;4639;48.862;9.188;2023-02-23T02:51:21;38.72;;;25.88;;
9208;SDS011;4639;48.862;9.188;2023-02-23T02:56:30;33.47;;;24.17;;
9208;SDS011;4639;48.862;9.188;2023-02-23T02:59:04;30.23;;;23.52;;
9208;SDS011;4639;48.862;9.188;2023-02-23T03:01:52;36.42;;;25.27;;
9208;SDS011;4639;48.862;9.188;2023-02-23T03:04:36;29.45;;;23.92;;
9208;SDS011;4639;48.862;9.188;2023-02-23T03:07:34;29.48;;;22.75;;
9208;SDS011;4639;48.862;9.188;2023-02-23T03:10:36;32.70;;;22.35;;
9208;SDS011;4639;48.862;9.188;2023-02-23T03:16:42;28.80;;;23.17;;
9208;SDS011;4639;48.862;9.188;2023-02-23T03:19:29;32.97;;;22.42;;
9208;SDS011;4639;48.862;9.188;2023-02-23T03:22:24;30.02;;;21.42;;
9208;SDS011;4639;48.862;9.188;2023-02-23T03:25:16;30.23;;;22.08;;
9208;SDS011;4639;48.862;9.188;2023-02-23T03:28:10;33.90;;;23.88;;
9208;SDS011;4639;48.862;9.188;2023-02-23T03:34:13;31.55;;;22.98;;
9208;SDS011;4639;48.862;9.188;2023-02-23T03:37:10;29.92;;;23.10;;
9208;SDS011;4639;48.862;9.188;2023-02-23T03:43:15;27.15;;;22.13;;
9208;SDS011;4639;48.862;9.188;2023-02-23T03:46:02;30.40;;;23.45;;
9208;SDS011;4639;48.862;9.188;2023-02-23T03:48:48;30.58;;;24.38;;
9208;SDS011;4639;48.862;9.188;2023-02-23T03:51:35;28.67;;;22.60;;
9208;SDS011;4639;48.862;9.188;2023-02-23T03:54:30;32.95;;;23.77;;
9208;SDS011;4639;48.862;9.188;2023-02-23T03:57:18;33.20;;;23.23;;
9208;SDS011;4639;48.862;9.188;2023-02-23T04:00:08;28.15;;;21.92;;
9208;SDS011;4639;48.862;9.188;2023-02-23T04:02:58;27.90;;;21.33;;
9208;SDS011;4639;48.862;9.188;2023-02-23T04:05:43;26.30;;;21.38;;
9208;SDS011;4639;48.862;9.188;2023-02-23T04:08:31;27.33;;;21.35;;
9208;SDS011;4639;48.862;9.188;2023-02-23T04:11:24;33.42;;;21.40;;
9208;SDS011;4639;48.862;9.188;2023-02-23T04:14:16;31.35;;;21.05;;
9208;SDS011;4639;48.862;9.188;2023-02-23T04:16:46;26.52;;;21.00;;
9208;SDS011;4639;48.862;9.188;2023-02-23T04:19:12;29.67;;;21.90;;
9208;SDS011;4639;48.862;9.188;2023-02-23T04:21:38;26.48;;;21.05;;
9208;SDS011;4639;48.862;9.188;2023-02-23T04:24:03;25.45;;;20.38;;
9208;SDS011;4639;48.862;9.188;2023-02-23T04:26:29;26.70;;;21.02;;
9208;SDS011;4639;48.862;9.188;2023-02-23T04:28:54;27.30;;;22.13;;
9208;SDS011;4639;48.862;9.188;2023-02-23T04:31:20;28.85;;;21.60;;
9208;SDS011;4639;48.862;9.188;2023-02-23T04:33:48;27.52;;;21.60;;
9208;SDS011;4639;48.862;9.188;2023-02-23T04:36:14;32.10;;;22.20;;
9208;SDS011;4639;48.862;9.188;2023-02-23T04:38:39;30.08;;;22.38;;
9208;SDS011;4639;48.862;9.188;2023-02-23T04:41:05;31.05;;;21.90;;
9208;SDS011;4639;48.862;9.188;2023-02-23T04:43:31;26.58;;;21.30;;
9208;SDS011;4639;48.862;9.188;2023-02-23T04:45:56;28.08;;;21.08;;
9208;SDS011;4639;48.862;9.188;2023-02-23T04:48:22;27.30;;;21.55;;
9208;SDS011;4639;48.862;9.188;2023-02-23T04:50:50;28.08;;;22.48;;
9208;SDS011;4639;48.862;9.188;2023-02-23T04:53:17;28.02;;;21.23;;
9208;SDS011;4639;48.862;9.188;2023-02-23T04:55:42;26.05;;;21.27;;
9208;SDS011;4639;48.862;9.188;2023-02-23T04:58:08;29.27;;;22.48;;
9208;SDS011;4639;48.862;9.188;2023-02-23T05:00:37;28.30;;;21.58;;
9208;SDS011;4639;48.862;9.188;2023-02-23T05:03:03;31.17;;;22.30;;
9208;SDS011;4639;48.862;9.188;2023-02-23T05:05:29;28.55;;;21.60;;
9208;SDS011;4639;48.862;9.188;2023-02-23T05:07:55;28.40;;;22.27;;
9208;SDS011;4639;48.862;9.188;2023-02-23T05:10:21;29.88;;;21.90;;
9208;SDS011;4639;48.862;9.188;2023-02-23T05:12:47;32.45;;;22.17;;
9208;SDS011;4639;48.862;9.188;2023-02-23T05:15:12;31.67;;;23.60;;
9208;SDS011;4639;48.862;9.188;2023-02-23T05:17:38;27.77;;;22.55;;
9208;SDS011;4639;48.862;9.188;2023-02-23T05:20:08;31.85;;;23.60;;
9208;SDS011;4639;48.862;9.188;2023-02-23T05:22:36;34.47;;;26.23;;
9208;SDS011;4639;48.862;9.188;2023-02-23T05:25:02;34.42;;;26.02;;
9208;SDS011;4639;48.862;9.188;2023-02-23T05:27:28;30.23;;;24.00;;
9208;SDS011;4639;48.862;9.188;2023-02-23T05:29:54;32.28;;;24.52;;
9208;SDS011;4639;48.862;9.188;2023-02-23T05:32:19;30.25;;;24.55;;
9208;SDS011;4639;48.862;9.188;2023-02-23T05:34:46;30.88;;;24.15;;
9208;SDS011;4639;48.862;9.188;2023-02-23T05:37:11;30.38;;;24.63;;
9208;SDS011;4639;48.862;9.188;2023-02-23T05:39:37;31.52;;;24.33;;
9208;SDS011;4639;48.862;9.188;2023-02-23T05:42:03;33.25;;;25.08;;
9208;SDS011;4639;48.862;9.188;2023-02-23T05:44:29;30.40;;;23.73;;
9208;SDS011;4639;48.862;9.188;2023-02-23T05:46:54;32.45;;;23.90;;
9208;SDS011;4639;48.862;9.188;2023-02-23T05:49:20;30.65;;;23.65;;
9208;SDS011;4639;48.862;9.188;2023-02-23T05:51:46;30.85;;;24.67;;
9208;SDS011;4639;48.862;9.188;2023-02-23T05:54:11;28.70;;;23.73;;
9208;SDS011;4639;48.862;9.188;2023-02-23T05:56:38;32.53;;;25.23;;
9208;SDS011;4639;48.862;9.188;2023-02-23T05:59:03;33.83;;;24.55;;
9208;SDS011;4639;48.862;9.188;2023-02-23T06:01:29;33.63;;;25.48;;
9208;SDS011;4639;48.862;9.188;2023-02-23T06:03:55;30.13;;;25.02;;
9208;SDS011;4639;48.862;9.188;2023-02-23T06:06:21;30.63;;;24.20;;
9208;SDS011;4639;48.862;9.188;2023-02-23T06:08:48;33.03;;;25.38;;
9208;SDS011;4639;48.862;9.188;2023-02-23T06:11:13;31.83;;;25.02;;
9208;SDS011;4639;48.862;9.188;2023-02-23T06:13:39;34.15;;;24.88;;
9208;SDS011;4639;48.862;9.188;2023-02-23T06:16:05;33.72;;;24.58;;
9208;SDS011;4639;48.862;9.188;2023-02-23T06:18:32;31.50;;;24.42;;
9208;SDS011;4639;48.862;9.188;2023-02-23T06:20:58;32.40;;;23.42;;
9208;SDS011;4639;48.862;9.188;2023-02-23T06:23:25;31.90;;;24.52;;
9208;SDS011;4639;48.862;9.188;2023-02-23T06:25:54;30.02;;;23.80;;
9208;SDS011;4639;48.862;9.188;2023-02-23T06:28:20;32.92;;;24.52;;
9208;SDS011;4639;48.862;9.188;2023-02-23T06:30:45;33.00;;;25.05;;
9208;SDS011;4639;48.862;9.188;2023-02-23T06:33:11;34.20;;;25.88;;
9208;SDS011;4639;48.862;9.188;2023-02-23T06:35:37;30.80;;;23.90;;
9208;SDS011;4639;48.862;9.188;2023-02-23T06:38:03;30.63;;;25.48;;
9208;SDS011;4639;48.862;9.188;2023-02-23T06:40:29;32.65;;;25.45;;
9208;SDS011;4639;48.862;9.188;2023-02-23T06:42:55;33.63;;;24.98;;
9208;SDS011;4639;48.862;9.188;2023-02-23T06:45:21;31.45;;;24.98;;
9208;SDS011;4639;48.862;9.188;2023-02-23T06:47:46;34.92;;;26.25;;
9208;SDS011;4639;48.862;9.188;2023-02-23T06:50:13;35.70;;;25.48;;
9208;SDS011;4639;48.862;9.188;2023-02-23T06:52:39;31.77;;;25.77;;
9208;SDS011;4639;48.862;9.188;2023-02-23T06:55:05;35.33;;;25.02;;
9208;SDS011;4639;48.862;9.188;2023-02-23T06:57:32;35.90;;;26.45;;
9208;SDS011;4639;48.862;9.188;2023-02-23T06:59:58;34.72;;;26.00;;
9208;SDS011;4639;48.862;9.188;2023-02-23T07:02:25;34.72;;;25.75;;
9208;SDS011;4639;48.862;9.188;2023-02-23T07:04:51;33.15;;;25.75;;
9208;SDS011;4639;48.862;9.188;2023-02-23T07:07:16;32.83;;;24.88;;
9208;SDS011;4639;48.862;9.188;2023-02-23T07:09:42;30.30;;;24.60;;
9208;SDS011;4639;48.862;9.188;2023-02-23T07:12:08;34.92;;;26.13;;
9208;SDS011;4639;48.862;9.188;2023-02-23T07:14:34;38.70;;;26.08;;
9208;SDS011;4639;48.862;9.188;2023-02-23T07:17:01;38.33;;;25.30;;
9208;SDS011;4639;48.862;9.188;2023-02-23T07:19:28;35.70;;;26.08;;
9208;SDS011;4639;48.862;9.188;2023-02-23T07:21:54;33.03;;;24.33;;
9208;SDS011;4639;48.862;9.188;2023-02-23T07:24:20;36.20;;;26.20;;
9208;SDS011;4639;48.862;9.188;2023-02-23T07:26:46;36.47;;;25.83;;
9208;SDS011;4639;48.862;9.188;2023-02-23T07:29:13;33.78;;;24.80;;
9208;SDS011;4639;48.862;9.188;2023-02-23T07:31:39;35.63;;;26.15;;
9208;SDS011;4639;48.862;9.188;2023-02-23T07:34:06;34.03;;;26.63;;
9208;SDS011;4639;48.862;9.188;2023-02-23T07:36:32;34.33;;;26.25;;
9208;SDS011;4639;48.862;9.188;2023-02-23T07:38:57;35.60;;;26.40;;
9208;SDS011;4639;48.862;9.188;2023-02-23T07:41:23;33.35;;;26.52;;
9208;SDS011;4639;48.862;9.188;2023-02-23T07:43:49;33.72;;;26.15;;
9208;SDS011;4639;48.862;9.188;2023-02-23T07:46:14;35.65;;;26.15;;
9208;SDS011;4639;48.862;9.188;2023-02-23T07:48:41;35.25;;;26.25;;
9208;SDS011;4639;48.862;9.188;2023-02-23T07:51:11;34.70;;;25.13;;
9208;SDS011;4639;48.862;9.188;2023-02-23T07:53:39;36.80;;;25.05;;
9208;SDS011;4639;48.862;9.188;2023-02-23T07:56:06;29.85;;;22.58;;
9208;SDS011;4639;48.862;9.188;2023-02-23T07:58:35;32.05;;;22.92;;
9208;SDS011;4639;48.862;9.188;2023-02-23T08:01:02;32.85;;;24.73;;
9208;SDS011;4639;48.862;9.188;2023-02-23T08:03:28;29.88;;;22.17;;
9208;SDS011;4639;48.862;9.188;2023-02-23T08:05:54;30.55;;;22.90;;
9208;SDS011;4639;48.862;9.188;2023-02-23T08:08:19;32.30;;;21.35;;
9208;SDS011;4639;48.862;9.188;2023-02-23T08:10:45;33.95;;;21.45;;
9208;SDS011;4639;48.862;9.188;2023-02-23T08:13:12;26.23;;;19.50;;
9208;SDS011;4639;48.862;9.188;2023-02-23T08:15:39;28.63;;;20.98;;
9208;SDS011;4639;48.862;9.188;2023-02-23T08:18:05;31.55;;;21.52;;
9208;SDS011;4639;48.862;9.188;2023-02-23T08:20:31;28.48;;;21.35;;
9208;SDS011;4639;48.862;9.188;2023-02-23T08:22:56;29.42;;;20.25;;
9208;SDS011;4639;48.862;9.188;2023-02-23T08:25:23;27.08;;;21.10;;
9208;SDS011;4639;48.862;9.188;2023-02-23T08:27:51;26.45;;;19.70;;
9208;SDS011;4639;48.862;9.188;2023-02-23T08:30:21;26.23;;;20.13;;
9208;SDS011;4639;48.862;9.188;2023-02-23T08:32:48;26.73;;;19.92;;
9208;SDS011;4639;48.862;9.188;2023-02-23T08:35:15;28.35;;;21.25;;
9208;SDS011;4639;48.862;9.188;2023-02-23T08:37:42;28.83;;;20.20;;
9208;SDS011;4639;48.862;9.188;2023-02-23T08:40:09;26.00;;;19.92;;
9208;SDS011;4639;48.862;9.188;2023-02-23T08:42:36;31.98;;;20.15;;
9208;SDS011;4639;48.862;9.188;2023-02-23T08:45:01;23.08;;;18.65;;
9208;SDS011;4639;48.862;9.188;2023-02-23T08:47:27;24.23;;;20.00;;
9208;SDS011;4639;48.862;9.188;2023-02-23T08:49:53;23.80;;;19.42;;
9208;SDS011;4639;48.862;9.188;2023-02-23T08:52:19;28.67;;;20.48;;
9208;SDS011;4639;48.862;9.188;2023-02-23T08:54:45;21.50;;;18.58;;
9208;SDS011;4639;48.862;9.188;2023-02-23T08:57:11;27.55;;;20.73;;
9208;SDS011;4639;48.862;9.188;2023-02-23T08:59:37;28.17;;;21.88;;
9208;SDS011;4639;48.862;9.188;2023-02-23T09:02:05;30.75;;;23.02;;
9208;SDS011;4639;48.862;9.188;2023-02-23T09:04:32;26.83;;;20.63;;
9208;SDS011;4639;48.862;9.188;2023-02-23T09:07:02;30.30;;;20.80;;
9208;SDS011;4639;48.862;9.188;2023-02-23T09:09:28;24.83;;;19.85;;
9208;SDS011;4639;48.862;9.188;2023-02-23T09:11:54;26.92;;;20.05;;
9208;SDS011;4639;48.862;9.188;2023-02-23T09:14:20;25.27;;;19.65;;
9208;SDS011;4639;48.862;9.188;2023-02-23T09:16:45;28.25;;;20.67;;
9208;SDS011;4639;48.862;9.188;2023-02-23T09:19:11;23.42;;;18.80;;
9208;SDS011;4639;48.862;9.188;2023-02-23T09:21:37;25.85;;;17.08;;
9208;SDS011;4639;48.862;9.188;2023-02-23T09:24:02;22.75;;;17.33;;
9208;SDS011;4639;48.862;9.188;2023-02-23T09:26:28;19.83;;;15.52;;
9208;SDS011;4639;48.862;9.188;2023-02-23T09:28:57;21.92;;;14.90;;
9208;SDS011;4639;48.862;9.188;2023-02-23T09:31:24;20.20;;;14.80;;
9208;SDS011;4639;48.862;9.188;2023-02-23T09:33:50;24.20;;;14.85;;
9208;SDS011;4639;48.862;9.188;2023-02-23T09:36:20;20.80;;;14.75;;
9208;SDS011;4639;48.862;9.188;2023-02-23T09:38:49;23.23;;;15.23;;
9208;SDS011;4639;48.862;9.188;2023-02-23T09:47:15;26.90;;;19.17;;
9208;SDS011;4639;48.862;9.188;2023-02-23T09:49:47;18.05;;;14.02;;
9208;SDS011;4639;48.862;9.188;2023-02-23T09:52:19;22.27;;;15.77;;
9208;SDS011;4639;48.862;9.188;2023-02-23T09:54:49;22.75;;;15.27;;
9208;SDS011;4639;48.862;9.188;2023-02-23T09:57:19;22.73;;;13.20;;
9208;SDS011;4639;48.862;9.188;2023-02-23T09:59:49;21.20;;;13.80;;
9208;SDS011;4639;48.862;9.188;2023-02-23T10:04:51;18.42;;;13.23;;
9208;SDS011;4639;48.862;9.188;2023-02-23T10:15:25;19.70;;;12.45;;
9208;SDS011;4639;48.862;9.188;2023-02-23T10:23:33;15.88;;;12.20;;
9208;SDS011;4639;48.862;9.188;2023-02-23T10:26:00;16.85;;;12.65;;
9208;SDS011;4639;48.862;9.188;2023-02-23T10:28:29;23.63;;;12.98;;
9208;SDS011;4639;48.862;9.188;2023-02-23T10:30:58;17.75;;;12.40;;
9208;SDS011;4639;48.862;9.188;2023-02-23T10:33:30;18.50;;;13.13;;
9208;SDS011;4639;48.862;9.188;2023-02-23T10:36:04;15.43;;;12.57;;
9208;SDS011;4639;48.862;9.188;2023-02-23T10:38:51;14.95;;;12.25;;
9208;SDS011;4639;48.862;9.188;2023-02-23T10:41:17;15.93;;;12.73;;
9208;SDS011;4639;48.862;9.188;2023-02-23T10:43:42;16.05;;;12.98;;
9208;SDS011;4639;48.862;9.188;2023-02-23T10:46:10;16.27;;;12.45;;
9208;SDS011;4639;48.862;9.188;2023-02-23T10:48:43;14.68;;;11.73;;
9208;SDS011;4639;48.862;9.188;2023-02-23T10:51:17;15.75;;;11.30;;
9208;SDS011;4639;48.862;9.188;2023-02-23T10:53:46;19.67;;;12.07;;
9208;SDS011;4639;48.862;9.188;2023-02-23T10:56:13;14.75;;;10.45;;
9208;SDS011;4639;48.862;9.188;2023-02-23T11:01:50;12.55;;;9.77;;
9208;SDS011;4639;48.862;9.188;2023-02-23T11:04:18;11.32;;;9.73;;
9208;SDS011;4639;48.862;9.188;2023-02-23T11:06:50;15.10;;;11.73;;
9208;SDS011;4639;48.862;9.188;2023-02-23T11:09:35;14.18;;;11.07;;
9208;SDS011;4639;48.862;9.188;2023-02-23T11:14:47;15.27;;;9.70;;
9208;SDS011;4639;48.862;9.188;2023-02-23T11:17:24;13.63;;;10.15;;
9208;SDS011;4639;48.862;9.188;2023-02-23T11:19:59;12.13;;;9.60;;
9208;SDS011;4639;48.862;9.188;2023-02-23T11:22:30;12.02;;;9.45;;
9208;SDS011;4639;48.862;9.188;2023-02-23T11:24:58;11.10;;;9.27;;
9208;SDS011;4639;48.862;9.188;2023-02-23T11:27:27;13.38;;;8.60;;
9208;SDS011;4639;48.862;9.188;2023-02-23T11:29:54;12.68;;;9.35;;
9208;SDS011;4639;48.862;9.188;2023-02-23T11:32:25;16.17;;;9.38;;
9208;SDS011;4639;48.862;9.188;2023-02-23T11:37:46;12.45;;;8.80;;
9208;SDS011;4639;48.862;9.188;2023-02-23T11:40:33;15.68;;;9.07;;
9208;SDS011;4639;48.862;9.188;2023-02-23T11:45:33;14.48;;;8.18;;
9208;SDS011;4639;48.862;9.188;2023-02-23T11:50:58;12.27;;;8.38;;
9208;SDS011;4639;48.862;9.188;2023-02-23T11:53:29;14.52;;;8.88;;
9208;SDS011;4639;48.862;9.188;2023-02-23T11:55:59;13.38;;;8.60;;
9208;SDS011;4639;48.862;9.188;2023-02-23T11:58:38;10.77;;;7.55;;
9208;SDS011;4639;48.862;9.188;2023-02-23T12:01:10;9.77;;;7.68;;
9208;SDS011;4639;48.862;9.188;2023-02-23T12:03:41;11.68;;;8.18;;
9208;SDS011;4639;48.862;9.188;2023-02-23T12:12:07;11.30;;;7.43;;
9208;SDS011;4639;48.862;9.188;2023-02-23T12:17:15;10.25;;;6.50;;
9208;SDS011;4639;48.862;9.188;2023-02-23T12:19:54;13.98;;;6.70;;
9208;SDS011;4639;48.862;9.188;2023-02-23T12:22:42;14.45;;;6.82;;
9208;SDS011;4639;48.862;9.188;2023-02-23T12:27:48;9.75;;;5.88;;
9208;SDS011;4639;48.862;9.188;2023-02-23T12:30:34;10.88;;;5.82;;
9208;SDS011;4639;48.862;9.188;2023-02-23T12:33:29;12.27;;;5.55;;
9208;SDS011;4639;48.862;9.188;2023-02-23T12:44:33;10.52;;;6.53;;
9208;SDS011;4639;48.862;9.188;2023-02-23T12:47:01;8.00;;;5.25;;
9208;SDS011;4639;48.862;9.188;2023-02-23T12:49:43;10.82;;;5.47;;
9208;SDS011;4639;48.862;9.188;2023-02-23T12:52:20;13.45;;;6.40;;
9208;SDS011;4639;48.862;9.188;2023-02-23T12:54:50;6.65;;;5.03;;
9208;SDS011;4639;48.862;9.188;2023-02-23T12:57:21;9.45;;;5.43;;
9208;SDS011;4639;48.862;9.188;2023-02-23T12:59:57;12.13;;;6.47;;
9208;SDS011;4639;48.862;9.188;2023-02-23T13:05:47;13.05;;;6.45;;
9208;SDS011;4639;48.862;9.188;2023-02-23T13:08:06;10.13;;;5.55;;
9208;SDS011;4639;48.862;9.188;2023-02-23T13:10:58;11.60;;;6.28;;
9208;SDS011;4639;48.862;9.188;2023-02-23T13:16:15;8.38;;;5.72;;
9208;SDS011;4639;48.862;9.188;2023-02-23T13:24:18;13.27;;;4.72;;
9208;SDS011;4639;48.862;9.188;2023-02-23T13:29:39;8.45;;;4.97;;
9208;SDS011;4639;48.862;9.188;2023-02-23T13:32:28;9.82;;;4.57;;
9208;SDS011;4639;48.862;9.188;2023-02-23T13:34:59;10.95;;;4.93;;
9208;SDS011;4639;48.862;9.188;2023-02-23T13:51:11;9.68;;;4.00;;
9208;SDS011;4639;48.862;9.188;2023-02-23T13:53:57;11.88;;;3.53;;
9208;SDS011;4639;48.862;9.188;2023-02-23T13:56:30;10.38;;;4.20;;
9208;SDS011;4639;48.862;9.188;2023-02-23T13:59:03;7.40;;;3.90;;
9208;SDS011;4639;48.862;9.188;2023-02-23T14:01:37;7.88;;;3.63;;
9208;SDS011;4639;48.862;9.188;2023-02-23T14:04:12;9.40;;;3.92;;
9208;SDS011;4639;48.862;9.188;2023-02-23T14:06:59;10.40;;;4.40;;
9208;SDS011;4639;48.862;9.188;2023-02-23T14:09:36;7.63;;;3.67;;
9208;SDS011;4639;48.862;9.188;2023-02-23T14:17:08;9.88;;;4.60;;
9208;SDS011;4639;48.862;9.188;2023-02-23T14:19:41;5.20;;;3.30;;
9208;SDS011;4639;48.862;9.188;2023-02-23T14:22:12;6.85;;;3.70;;
9208;SDS011;4639;48.862;9.188;2023-02-23T14:24:42;8.48;;;3.78;;
9208;SDS011;4639;48.862;9.188;2023-02-23T14:29:40;11.88;;;4.18;;
9208;SDS011;4639;48.862;9.188;2023-02-23T14:34:58;7.93;;;3.95;;
9208;SDS011;4639;48.862;9.188;2023-02-23T14:39:55;11.93;;;4.63;;
9208;SDS011;4639;48.862;9.188;2023-02-23T14:42:45;7.15;;;4.35;;
9208;SDS011;4639;48.862;9.188;2023-02-23T14:45:16;8.65;;;4.07;;
9208;SDS011;4639;48.862;9.188;2023-02-23T14:47:49;9.95;;;4.53;;
9208;SDS011;4639;48.862;9.188;2023-02-23T14:50:23;10.30;;;4.75;;
9208;SDS011;4639;48.862;9.188;2023-02-23T14:52:51;10.98;;;5.13;;
9208;SDS011;4639;48.862;9.188;2023-02-23T14:55:21;10.57;;;6.32;;
9208;SDS011;4639;48.862;9.188;2023-02-23T14:57:49;9.38;;;4.72;;
9208;SDS011;4639;48.862;9.188;2023-02-23T15:02:56;12.80;;;5.60;;
9208;SDS011;4639;48.862;9.188;2023-02-23T15:05:27;12.05;;;5.25;;
9208;SDS011;4639;48.862;9.188;2023-02-23T15:07:56;9.50;;;5.50;;
9208;SDS011;4639;48.862;9.188;2023-02-23T15:10:31;12.82;;;7.07;;
9208;SDS011;4639;48.862;9.188;2023-02-23T15:13:09;11.60;;;5.75;;
9208;SDS011;4639;48.862;9.188;2023-02-23T15:15:52;12.63;;;5.57;;
9208;SDS011;4639;48.862;9.188;2023-02-23T15:18:20;11.77;;;6.60;;
9208;SDS011;4639;48.862;9.188;2023-02-23T15:20:48;9.35;;;6.13;;
9208;SDS011;4639;48.862;9.188;2023-02-23T15:23:14;6.95;;;5.28;;
9208;SDS011;4639;48.862;9.188;2023-02-23T15:25:43;8.35;;;5.70;;
9208;SDS011;4639;48.862;9.188;2023-02-23T15:30:49;10.13;;;5.35;;
9208;SDS011;4639;48.862;9.188;2023-02-23T15:33:18;12.02;;;5.90;;
9208;SDS011;4639;48.862;9.188;2023-02-23T15:38:53;8.82;;;5.85;;
9208;SDS011;4639;48.862;9.188;2023-02-23T15:41:33;13.07;;;6.00;;
9208;SDS011;4639;48.862;9.188;2023-02-23T15:44:11;10.25;;;6.03;;
9208;SDS011;4639;48.862;9.188;2023-02-23T15:46:53;10.07;;;5.68;;
9208;SDS011;4639;48.862;9.188;2023-02-23T15:49:21;10.63;;;5.63;;
9208;SDS011;4639;48.862;9.188;2023-02-23T15:51:50;11.48;;;5.38;;
9208;SDS011;4639;48.862;9.188;2023-02-23T15:54:23;11.02;;;5.50;;
9208;SDS011;4639;48.862;9.188;2023-02-23T15:57:01;13.82;;;5.40;;
9208;SDS011;4639;48.862;9.188;2023-02-23T15:59:35;15.55;;;6.00;;
9208;SDS011;4639;48.862;9.188;2023-02-23T16:02:02;12.35;;;6.50;;
9208;SDS011;4639;48.862;9.188;2023-02-23T16:04:38;16.95;;;6.28;;
9208;SDS011;4639;48.862;9.188;2023-02-23T16:07:20;11.57;;;7.05;;
9208;SDS011;4639;48.862;9.188;2023-02-23T16:09:54;13.93;;;7.60;;
9208;SDS011;4639;48.862;9.188;2023-02-23T16:12:28;12.23;;;7.05;;
9208;SDS011;4639;48.862;9.188;2023-02-23T16:14:58;9.63;;;6.70;;
9208;SDS011;4639;48.862;9.188;2023-02-23T16:17:45;13.52;;;6.50;;
9208;SDS011;4639;48.862;9.188;2023-02-23T16:22:53;17.52;;;6.70;;
9208;SDS011;4639;48.862;9.188;2023-02-23T16:25:23;11.73;;;7.15;;
9208;SDS011;4639;48.862;9.188;2023-02-23T16:27:54;9.13;;;6.55;;
9208;SDS011;4639;48.862;9.188;2023-02-23T16:33:10;15.73;;;8.23;;
9208;SDS011;4639;48.862;9.188;2023-02-23T16:35:46;10.15;;;5.90;;
9208;SDS011;4639;48.862;9.188;2023-02-23T16:38:14;12.88;;;7.63;;
9208;SDS011;4639;48.862;9.188;2023-02-23T16:40:47;12.93;;;7.63;;
9208;SDS011;4639;48.862;9.188;2023-02-23T16:43:13;10.82;;;6.43;;
9208;SDS011;4639;48.862;9.188;2023-02-23T16:45:39;12.60;;;6.60;;
9208;SDS011;4639;48.862;9.188;2023-02-23T16:48:10;15.35;;;7.13;;
9208;SDS011;4639;48.862;9.188;2023-02-23T16:50:40;11.85;;;6.93;;
9208;SDS011;4639;48.862;9.188;2023-02-23T16:53:06;13.75;;;7.35;;
9208;SDS011;4639;48.862;9.188;2023-02-23T16:55:44;14.32;;;8.25;;
9208;SDS011;4639;48.862;9.188;2023-02-23T16:58:17;12.98;;;8.57;;
9208;SDS011;4639;48.862;9.188;2023-02-23T17:00:44;13.13;;;7.18;;
9208;SDS011;4639;48.862;9.188;2023-02-23T17:03:14;12.13;;;7.35;;
9208;SDS011;4639;48.862;9.188;2023-02-23T17:05:46;15.30;;;9.23;;
9208;SDS011;4639;48.862;9.188;2023-02-23T17:08:12;11.73;;;8.57;;
9208;SDS011;4639;48.862;9.188;2023-02-23T17:10:39;13.00;;;8.43;;
9208;SDS011;4639;48.862;9.188;2023-02-23T17:13:07;17.23;;;9.30;;
9208;SDS011;4639;48.862;9.188;2023-02-23T17:15:40;16.08;;;8.95;;
9208;SDS011;4639;48.862;9.188;2023-02-23T17:18:12;14.63;;;9.52;;
9208;SDS011;4639;48.862;9.188;2023-02-23T17:20:38;12.88;;;9.65;;
9208;SDS011;4639;48.862;9.188;2023-02-23T17:23:04;14.50;;;9.48;;
9208;SDS011;4639;48.862;9.188;2023-02-23T17:25:30;16.42;;;10.15;;
9208;SDS011;4639;48.862;9.188;2023-02-23T17:27:56;14.00;;;10.18;;
9208;SDS011;4639;48.862;9.188;2023-02-23T17:30:23;15.38;;;9.20;;
9208;SDS011;4639;48.862;9.188;2023-02-23T17:32:50;12.70;;;9.93;;
9208;SDS011;4639;48.862;9.188;2023-02-23T17:35:17;12.55;;;9.68;;
9208;SDS011;4639;48.862;9.188;2023-02-23T17:37:43;16.27;;;10.13;;
9208;SDS011;4639;48.862;9.188;2023-02-23T17:40:12;16.15;;;9.98;;